Time;durP1;ratioP1;P1;durP2;ratioP2;P2;SDS_P1;SDS_P2;PMS_P1;PMS_P2;Temp;Humidity;BMP_temperature;BMP_pressure;BME280_temperature;BME280_humidity;BME280_pressure;Samples;Min_cycle;Max_cycle;Signal;HPM_P1;HPM_P2
2023/06/01 00:01:36;;;;;;;12.00;5.63;;;;;;;;;;5002827;28;20527;-76
2023/06/01 00:04:03;;;;;;;12.32;5.95;;;;;;;;;;5005500;28;20045;-76
2023/06/01 00:06:30;;;;;;;10.48;5.43;;;;;;;;;;5010941;28;20069;-76
2023/06/01 00:08:56;;;;;;;10.95;5.40;;;;;;;;;;5008840;28;20092;-75
2023/06/01 00:11:23;;;;;;;9.30;5.32;;;;;;;;;;5003307;28;20046;-76
2023/06/01 00:13:49;;;;;;;10.82;5.35;;;;;;;;;;5004861;28;20088;-76
2023/06/01 00:16:16;;;;;;;10.40;5.88;;;;;;;;;;5003511;28;20077;-76
2023/06/01 00:18:42;;;;;;;9.10;4.93;;;;;;;;;;5008768;28;20049;-76
2023/06/01 00:21:08;;;;;;;12.10;6.10;;;;;;;;;;5002729;28;20042;-76
2023/06/01 00:23:34;;;;;;;9.45;5.93;;;;;;;;;;5006799;28;20509;-76
2023/06/01 00:26:00;;;;;;;13.25;5.97;;;;;;;;;;5010010;28;20044;-76
2023/06/01 00:28:26;;;;;;;9.20;5.70;;;;;;;;;;4998642;28;20486;-76
2023/06/01 00:30:53;;;;;;;8.95;5.70;;;;;;;;;;4998837;28;20046;-76
2023/06/01 00:33:19;;;;;;;8.98;5.80;;;;;;;;;;4999515;28;20374;-76
2023/06/01 00:35:45;;;;;;;11.85;5.75;;;;;;;;;;4997717;28;20857;-76
2023/06/01 00:38:11;;;;;;;12.60;5.95;;;;;;;;;;5002642;28;20036;-76
2023/06/01 00:40:37;;;;;;;10.88;6.20;;;;;;;;;;4998967;28;20040;-76
2023/06/01 00:43:04;;;;;;;12.60;6.10;;;;;;;;;;5002429;28;20038;-76
2023/06/01 00:45:30;;;;;;;15.77;6.40;;;;;;;;;;5013844;28;20134;-76
2023/06/01 00:47:56;;;;;;;11.38;6.47;;;;;;;;;;5007755;28;20476;-76
2023/06/01 00:50:23;;;;;;;12.93;6.95;;;;;;;;;;5027034;28;20054;-76
2023/06/01 00:52:52;;;;;;;12.02;7.22;;;;;;;;;;5011092;28;20052;-76
2023/06/01 00:55:19;;;;;;;11.80;6.15;;;;;;;;;;4999954;28;20155;-76
2023/06/01 00:57:46;;;;;;;10.05;5.93;;;;;;;;;;5005212;28;20058;-76
2023/06/01 01:00:12;;;;;;;11.13;5.55;;;;;;;;;;5003829;28;20524;-76
2023/06/01 01:02:44;;;;;;;12.73;5.93;;;;;;;;;;5004946;28;20053;-76
2023/06/01 01:05:10;;;;;;;12.95;6.32;;;;;;;;;;5001433;28;20042;-76
2023/06/01 01:07:56;;;;;;;11.00;6.53;;;;;;;;;;5001531;28;20485;-76
2023/06/01 01:10:22;;;;;;;13.07;6.30;;;;;;;;;;5002227;28;20128;-76
2023/06/01 01:12:54;;;;;;;12.00;6.40;;;;;;;;;;5005214;28;21132;-76
2023/06/01 01:15:39;;;;;;;11.10;6.80;;;;;;;;;;5001620;28;20049;-76
2023/06/01 01:18:07;;;;;;;9.98;6.45;;;;;;;;;;5003846;28;20049;-75
2023/06/01 01:20:36;;;;;;;10.60;6.05;;;;;;;;;;5016587;28;20367;-76
2023/06/01 01:23:30;;;;;;;14.10;6.68;;;;;;;;;;5004905;28;20061;-76
2023/06/01 01:26:06;;;;;;;12.25;6.35;;;;;;;;;;5002691;28;20050;-76
2023/06/01 01:28:42;;;;;;;11.05;5.95;;;;;;;;;;5001899;28;20580;-75
2023/06/01 01:31:13;;;;;;;11.45;5.90;;;;;;;;;;5003995;28;20046;-75
2023/06/01 01:33:42;;;;;;;11.90;5.95;;;;;;;;;;5010579;28;20046;-75
2023/06/01 01:36:09;;;;;;;10.30;5.70;;;;;;;;;;5010307;28;20391;-75
2023/06/01 01:38:35;;;;;;;11.57;5.60;;;;;;;;;;5002608;28;20057;-75
2023/06/01 01:41:02;;;;;;;10.45;5.70;;;;;;;;;;5003703;28;20434;-75
2023/06/01 01:43:28;;;;;;;9.50;5.47;;;;;;;;;;5004917;28;20077;-75
2023/06/01 01:46:06;;;;;;;10.52;6.00;;;;;;;;;;5000721;28;20072;-76
2023/06/01 01:48:34;;;;;;;9.52;5.55;;;;;;;;;;5002620;28;20132;-75
2023/06/01 01:51:08;;;;;;;9.10;5.90;;;;;;;;;;5000649;28;20119;-75
2023/06/01 01:53:35;;;;;;;13.02;6.97;;;;;;;;;;5002961;28;20050;-75
2023/06/01 01:56:01;;;;;;;12.15;6.13;;;;;;;;;;5000565;28;20033;-75
2023/06/01 01:58:28;;;;;;;13.13;6.45;;;;;;;;;;5003505;28;20493;-75
2023/06/01 02:00:54;;;;;;;11.32;5.72;;;;;;;;;;5002788;28;20527;-75
2023/06/01 02:03:20;;;;;;;13.07;6.25;;;;;;;;;;5013506;28;20389;-76
2023/06/01 02:05:46;;;;;;;13.20;6.60;;;;;;;;;;5010328;28;20047;-75
2023/06/01 02:08:12;;;;;;;12.27;5.68;;;;;;;;;;5009000;28;20054;-75
2023/06/01 02:10:40;;;;;;;10.13;5.88;;;;;;;;;;5009754;28;20053;-76
2023/06/01 02:13:06;;;;;;;12.35;5.82;;;;;;;;;;5010666;28;20379;-75
2023/06/01 02:15:32;;;;;;;11.63;5.93;;;;;;;;;;5011143;28;20050;-76
2023/06/01 02:17:58;;;;;;;11.55;5.63;;;;;;;;;;5011927;28;20037;-75
2023/06/01 02:20:24;;;;;;;10.02;5.40;;;;;;;;;;5011313;28;20049;-76
2023/06/01 02:22:51;;;;;;;10.68;6.05;;;;;;;;;;5008362;28;20060;-75
2023/06/01 02:25:19;;;;;;;11.18;5.47;;;;;;;;;;5009430;28;20048;-75
2023/06/01 02:27:45;;;;;;;9.82;5.43;;;;;;;;;;5011535;28;20053;-75
2023/06/01 02:30:11;;;;;;;10.85;5.18;;;;;;;;;;5008260;28;20046;-75
2023/06/01 02:32:37;;;;;;;10.27;4.80;;;;;;;;;;5005764;28;20068;-75
2023/06/01 02:35:06;;;;;;;8.38;5.20;;;;;;;;;;5004258;28;20544;-76
2023/06/01 02:37:32;;;;;;;8.52;5.22;;;;;;;;;;5010280;28;20143;-75
2023/06/01 02:39:58;;;;;;;8.13;4.68;;;;;;;;;;5009464;28;20034;-76
2023/06/01 02:42:24;;;;;;;8.02;4.80;;;;;;;;;;5008763;28;20456;-75
2023/06/01 02:44:50;;;;;;;7.75;4.45;;;;;;;;;;5007181;28;20137;-75
2023/06/01 02:47:16;;;;;;;8.15;5.05;;;;;;;;;;5007081;28;20080;-76
2023/06/01 02:49:42;;;;;;;9.60;5.00;;;;;;;;;;5010015;28;20050;-76
2023/06/01 02:52:08;;;;;;;9.63;5.03;;;;;;;;;;5009416;28;20041;-75
2023/06/01 02:54:34;;;;;;;11.38;5.63;;;;;;;;;;5009801;28;20056;-76
2023/06/01 02:57:01;;;;;;;8.15;5.10;;;;;;;;;;4998351;28;20038;-76
2023/06/01 02:59:27;;;;;;;6.60;4.03;;;;;;;;;;5008659;28;20064;-76
2023/06/01 03:01:53;;;;;;;8.73;4.60;;;;;;;;;;5007662;28;20045;-76
2023/06/01 03:04:20;;;;;;;7.13;4.15;;;;;;;;;;5025914;28;20049;-75
2023/06/01 03:06:46;;;;;;;8.88;4.63;;;;;;;;;;5013133;28;20201;-76
2023/06/01 03:09:15;;;;;;;9.68;4.50;;;;;;;;;;5002915;28;20045;-75
2023/06/01 03:11:42;;;;;;;5.93;3.90;;;;;;;;;;5007983;28;20490;-76
2023/06/01 03:14:08;;;;;;;6.88;4.18;;;;;;;;;;5006237;28;20107;-75
2023/06/01 03:16:34;;;;;;;8.70;4.78;;;;;;;;;;5003342;28;20053;-76
2023/06/01 03:19:01;;;;;;;7.57;4.20;;;;;;;;;;5009103;28;20409;-76
2023/06/01 03:21:27;;;;;;;7.55;4.20;;;;;;;;;;5009812;28;20433;-76
2023/06/01 03:23:53;;;;;;;8.70;4.60;;;;;;;;;;5009450;28;20411;-76
2023/06/01 03:26:20;;;;;;;8.32;4.53;;;;;;;;;;4996466;28;20076;-76
2023/06/01 03:28:47;;;;;;;10.07;4.50;;;;;;;;;;5010069;28;20056;-76
2023/06/01 03:31:13;;;;;;;10.82;4.18;;;;;;;;;;4998765;28;20069;-75
2023/06/01 03:33:39;;;;;;;7.22;4.10;;;;;;;;;;4996991;28;20520;-76
2023/06/01 03:36:06;;;;;;;7.93;4.28;;;;;;;;;;5001545;28;20073;-76
2023/06/01 03:38:33;;;;;;;8.55;4.07;;;;;;;;;;4999734;28;20144;-76
2023/06/01 03:41:00;;;;;;;6.57;4.07;;;;;;;;;;5000982;28;20033;-76
2023/06/01 03:43:26;;;;;;;7.43;4.18;;;;;;;;;;5001410;28;20050;-77
2023/06/01 03:45:52;;;;;;;7.35;4.20;;;;;;;;;;4999646;28;20326;-76
2023/06/01 03:48:18;;;;;;;10.00;5.20;;;;;;;;;;4998344;28;20038;-76
2023/06/01 03:50:44;;;;;;;5.65;4.40;;;;;;;;;;5000294;28;20050;-76
2023/06/01 03:53:10;;;;;;;6.72;4.13;;;;;;;;;;4999364;28;20041;-75
2023/06/01 03:55:36;;;;;;;9.20;4.65;;;;;;;;;;4997854;28;20493;-76
2023/06/01 03:58:04;;;;;;;8.23;4.40;;;;;;;;;;4998811;28;20072;-76
2023/06/01 04:00:30;;;;;;;6.38;3.88;;;;;;;;;;5005748;28;20133;-76
2023/06/01 04:02:58;;;;;;;6.70;3.90;;;;;;;;;;5004923;28;20108;-76
2023/06/01 04:05:25;;;;;;;9.02;4.40;;;;;;;;;;5008520;28;20413;-75
2023/06/01 04:07:52;;;;;;;6.75;4.18;;;;;;;;;;5002902;28;20494;-76
2023/06/01 04:10:18;;;;;;;7.57;3.53;;;;;;;;;;5009747;28;20042;-76
2023/06/01 04:12:45;;;;;;;6.57;4.00;;;;;;;;;;5007976;28;20049;-76
2023/06/01 04:15:12;;;;;;;6.15;3.83;;;;;;;;;;5003971;28;20089;-75
2023/06/01 04:17:41;;;;;;;8.10;4.00;;;;;;;;;;5010948;28;20056;-76
2023/06/01 04:20:15;;;;;;;9.60;3.88;;;;;;;;;;5009469;28;20069;-75
2023/06/01 04:22:41;;;;;;;6.88;3.65;;;;;;;;;;5012796;28;20125;-75
2023/06/01 04:25:12;;;;;;;4.75;3.45;;;;;;;;;;5014621;28;20096;-76
2023/06/01 04:27:44;;;;;;;7.50;4.03;;;;;;;;;;5012255;28;20612;-74
2023/06/01 04:30:10;;;;;;;9.30;4.20;;;;;;;;;;5012621;28;20041;-75
2023/06/01 04:32:41;;;;;;;6.60;3.97;;;;;;;;;;5008109;28;20641;-75
2023/06/01 04:35:08;;;;;;;8.15;4.50;;;;;;;;;;5008559;28;20037;-75
2023/06/01 04:37:35;;;;;;;6.72;3.92;;;;;;;;;;5008756;28;20084;-75
2023/06/01 04:40:07;;;;;;;7.47;4.03;;;;;;;;;;5008924;28;20157;-75
2023/06/01 04:42:33;;;;;;;6.50;3.92;;;;;;;;;;5010343;28;20045;-75
2023/06/01 04:45:01;;;;;;;8.75;4.53;;;;;;;;;;5006428;28;20054;-75
2023/06/01 04:47:28;;;;;;;5.10;3.50;;;;;;;;;;5008311;28;20068;-76
2023/06/01 04:49:54;;;;;;;6.70;4.25;;;;;;;;;;5011591;28;20069;-75
2023/06/01 04:52:20;;;;;;;6.82;4.13;;;;;;;;;;5012577;28;20040;-75
2023/06/01 04:54:46;;;;;;;9.27;4.78;;;;;;;;;;5003774;28;20049;-75
2023/06/01 04:57:13;;;;;;;4.88;3.97;;;;;;;;;;5003448;28;20073;-75
2023/06/01 04:59:41;;;;;;;8.43;3.90;;;;;;;;;;5006305;28;20548;-75
2023/06/01 05:02:07;;;;;;;7.10;3.60;;;;;;;;;;5005266;28;20545;-75
2023/06/01 05:04:33;;;;;;;7.13;4.40;;;;;;;;;;5002526;28;20494;-75
2023/06/01 05:07:00;;;;;;;8.30;3.97;;;;;;;;;;5004403;28;20045;-75
2023/06/01 05:09:26;;;;;;;7.43;3.72;;;;;;;;;;5000765;28;20049;-76
2023/06/01 05:11:53;;;;;;;7.45;3.83;;;;;;;;;;5003465;28;20056;-75
2023/06/01 05:14:19;;;;;;;7.75;3.70;;;;;;;;;;5005834;28;20145;-75
2023/06/01 05:16:45;;;;;;;6.90;4.03;;;;;;;;;;5002555;28;20137;-76
2023/06/01 05:19:11;;;;;;;8.60;4.78;;;;;;;;;;5002310;28;20052;-75
2023/06/01 05:21:37;;;;;;;6.55;4.20;;;;;;;;;;5002160;28;20490;-75
2023/06/01 05:24:03;;;;;;;6.93;4.10;;;;;;;;;;5018065;28;20556;-76
2023/06/01 05:26:30;;;;;;;7.88;4.35;;;;;;;;;;5002945;28;20050;-75
2023/06/01 05:28:56;;;;;;;7.30;4.25;;;;;;;;;;5001859;28;20065;-76
2023/06/01 05:31:22;;;;;;;8.43;4.45;;;;;;;;;;5000984;28;20544;-75
2023/06/01 05:33:48;;;;;;;9.98;5.30;;;;;;;;;;4999069;28;20432;-76
2023/06/01 05:36:14;;;;;;;9.48;3.75;;;;;;;;;;5001205;28;20386;-75
2023/06/01 05:38:40;;;;;;;9.68;4.38;;;;;;;;;;5016771;28;20053;-75
2023/06/01 05:41:06;;;;;;;7.75;4.22;;;;;;;;;;4998873;28;20046;-76
2023/06/01 05:43:35;;;;;;;8.23;4.40;;;;;;;;;;4999819;28;20057;-76
2023/06/01 05:46:01;;;;;;;7.85;4.50;;;;;;;;;;5002937;28;21463;-76
2023/06/01 05:48:27;;;;;;;10.10;4.95;;;;;;;;;;5002808;28;20806;-76
2023/06/01 05:50:53;;;;;;;9.40;5.10;;;;;;;;;;5000912;28;20088;-76
2023/06/01 05:53:19;;;;;;;8.57;4.55;;;;;;;;;;5010827;28;20054;-77
2023/06/01 05:55:48;;;;;;;8.65;4.70;;;;;;;;;;5005599;28;20608;-76
2023/06/01 05:58:14;;;;;;;9.55;4.90;;;;;;;;;;5003187;28;20130;-75
2023/06/01 06:00:40;;;;;;;8.13;4.85;;;;;;;;;;5009509;28;20066;-76
2023/06/01 06:03:06;;;;;;;99.05;14.50;;;;;;;;;;5003382;28;20069;-76
2023/06/01 06:05:32;;;;;;;17.58;5.40;;;;;;;;;;5004157;28;20481;-76
2023/06/01 06:07:58;;;;;;;7.13;4.65;;;;;;;;;;5013940;28;20046;-75
2023/06/01 06:10:24;;;;;;;6.35;4.03;;;;;;;;;;5019768;28;20093;-76
2023/06/01 06:12:51;;;;;;;8.93;4.13;;;;;;;;;;5007728;28;20046;-76
2023/06/01 06:15:17;;;;;;;9.43;4.22;;;;;;;;;;5008746;28;20177;-75
2023/06/01 06:17:43;;;;;;;10.02;4.32;;;;;;;;;;5011146;28;20096;-75
2023/06/01 06:20:10;;;;;;;8.73;4.25;;;;;;;;;;5003460;28;20049;-75
2023/06/01 06:22:36;;;;;;;6.15;3.92;;;;;;;;;;5013025;28;20049;-75
2023/06/01 06:25:03;;;;;;;7.32;3.85;;;;;;;;;;5005142;28;20057;-75
2023/06/01 06:27:29;;;;;;;7.13;3.88;;;;;;;;;;5003307;28;20042;-76
2023/06/01 06:29:55;;;;;;;6.85;4.20;;;;;;;;;;5005866;28;20041;-76
2023/06/01 06:32:21;;;;;;;6.82;3.50;;;;;;;;;;5003064;28;20188;-76
2023/06/01 06:34:47;;;;;;;8.15;3.72;;;;;;;;;;5004478;28;20504;-75
2023/06/01 06:37:13;;;;;;;7.47;3.95;;;;;;;;;;5006249;28;20042;-75
2023/06/01 06:39:40;;;;;;;7.95;3.50;;;;;;;;;;5010256;28;20041;-75
2023/06/01 06:42:06;;;;;;;7.88;3.75;;;;;;;;;;5010243;28;20038;-75
2023/06/01 06:44:32;;;;;;;9.20;3.83;;;;;;;;;;5016998;28;20052;-75
2023/06/01 06:46:59;;;;;;;9.25;4.13;;;;;;;;;;5003054;28;20050;-75
2023/06/01 06:49:26;;;;;;;8.07;3.90;;;;;;;;;;5008270;28;20688;-75
2023/06/01 06:51:52;;;;;;;8.70;3.70;;;;;;;;;;5011695;28;20061;-76
2023/06/01 06:54:18;;;;;;;7.00;3.85;;;;;;;;;;5001466;28;20180;-76
2023/06/01 06:56:44;;;;;;;6.80;3.50;;;;;;;;;;5000816;28;20088;-76
2023/06/01 06:59:10;;;;;;;6.28;3.38;;;;;;;;;;5011169;28;20112;-75
2023/06/01 07:01:37;;;;;;;7.35;3.20;;;;;;;;;;5006753;28;20534;-75
2023/06/01 07:04:05;;;;;;;5.32;3.10;;;;;;;;;;4998714;28;20409;-75
2023/06/01 07:06:32;;;;;;;7.38;3.45;;;;;;;;;;5009888;28;20045;-76
2023/06/01 07:08:58;;;;;;;9.52;4.25;;;;;;;;;;5007868;28;20454;-76
2023/06/01 07:11:26;;;;;;;9.88;3.80;;;;;;;;;;5000166;28;20534;-76
2023/06/01 07:13:52;;;;;;;8.70;3.83;;;;;;;;;;5004469;28;20049;-75
2023/06/01 07:16:18;;;;;;;8.55;4.70;;;;;;;;;;5010788;28;20100;-76
2023/06/01 07:18:44;;;;;;;5.93;3.70;;;;;;;;;;5005881;28;20057;-76
2023/06/01 07:21:10;;;;;;;9.32;3.47;;;;;;;;;;5001896;28;20038;-75
2023/06/01 07:23:36;;;;;;;8.35;3.33;;;;;;;;;;5004606;28;20053;-75
2023/06/01 07:26:02;;;;;;;5.82;2.85;;;;;;;;;;5000614;28;20050;-76
2023/06/01 07:28:29;;;;;;;8.32;3.85;;;;;;;;;;5004186;28;20092;-76
2023/06/01 07:30:55;;;;;;;6.63;3.53;;;;;;;;;;5007781;28;20082;-76
2023/06/01 07:33:22;;;;;;;12.68;4.07;;;;;;;;;;4999801;28;20520;-75
2023/06/01 07:35:52;;;;;;;7.97;4.32;;;;;;;;;;5000560;28;20078;-75
2023/06/01 07:38:19;;;;;;;7.05;3.42;;;;;;;;;;5000843;28;20107;-75
2023/06/01 07:40:45;;;;;;;7.00;3.20;;;;;;;;;;5012853;28;20553;-75
2023/06/01 07:43:11;;;;;;;4.75;3.20;;;;;;;;;;5000781;28;20050;-75
2023/06/01 07:45:37;;;;;;;7.20;3.00;;;;;;;;;;5007783;28;20042;-75
2023/06/01 07:48:03;;;;;;;5.18;3.22;;;;;;;;;;5007151;28;20493;-75
2023/06/01 07:50:30;;;;;;;6.35;3.50;;;;;;;;;;5006276;28;20049;-75
2023/06/01 07:52:57;;;;;;;8.50;4.20;;;;;;;;;;5004250;28;20502;-75
2023/06/01 07:55:23;;;;;;;7.32;3.67;;;;;;;;;;5003796;28;20172;-75
2023/06/01 07:57:50;;;;;;;8.93;3.53;;;;;;;;;;4996950;28;20149;-75
2023/06/01 08:00:17;;;;;;;6.53;3.50;;;;;;;;;;5008316;28;20054;-75
2023/06/01 08:02:43;;;;;;;7.25;3.45;;;;;;;;;;4992306;28;20089;-75
2023/06/01 08:05:11;;;;;;;7.45;3.50;;;;;;;;;;5008406;28;20038;-74
2023/06/01 08:07:37;;;;;;;4.65;3.22;;;;;;;;;;5005275;28;20042;-75
2023/06/01 08:10:05;;;;;;;7.18;3.50;;;;;;;;;;4996898;28;20091;-76
2023/06/01 08:12:32;;;;;;;8.48;3.30;;;;;;;;;;5002127;28;20145;-75
2023/06/01 08:14:58;;;;;;;10.95;4.72;;;;;;;;;;5001162;28;20046;-76
2023/06/01 08:17:24;;;;;;;9.88;4.13;;;;;;;;;;5000515;28;20086;-76
2023/06/01 08:19:50;;;;;;;12.25;4.13;;;;;;;;;;5001231;28;20046;-75
2023/06/01 08:22:20;;;;;;;9.75;4.50;;;;;;;;;;4998054;28;20037;-75
2023/06/01 08:24:47;;;;;;;11.60;4.72;;;;;;;;;;5001503;28;20509;-75
2023/06/01 08:27:17;;;;;;;10.50;4.38;;;;;;;;;;4994621;28;20038;-75
2023/06/01 08:29:43;;;;;;;9.13;3.78;;;;;;;;;;5003569;28;20053;-75
2023/06/01 08:32:10;;;;;;;7.43;4.43;;;;;;;;;;5003650;28;20045;-76
2023/06/01 08:34:36;;;;;;;8.82;4.25;;;;;;;;;;5004990;28;20050;-75
2023/06/01 08:37:02;;;;;;;11.38;4.10;;;;;;;;;;5004577;28;20061;-75
2023/06/01 08:39:28;;;;;;;9.57;3.92;;;;;;;;;;5006151;28;20050;-75
2023/06/01 08:41:57;;;;;;;8.18;3.35;;;;;;;;;;4997253;28;20107;-76
2023/06/01 08:44:27;;;;;;;7.80;3.50;;;;;;;;;;4997132;28;20497;-76
2023/06/01 08:46:55;;;;;;;5.38;3.00;;;;;;;;;;4999712;28;20081;-76
2023/06/01 08:49:22;;;;;;;5.63;3.58;;;;;;;;;;4999978;28;20136;-76
2023/06/01 08:51:49;;;;;;;7.35;3.65;;;;;;;;;;5014537;28;20042;-75
2023/06/01 08:54:16;;;;;;;6.13;3.55;;;;;;;;;;5003114;28;20050;-75
2023/06/01 08:56:42;;;;;;;6.53;3.50;;;;;;;;;;5003007;28;20042;-75
2023/06/01 08:59:10;;;;;;;6.70;3.25;;;;;;;;;;4997347;28;20099;-75
2023/06/01 09:01:36;;;;;;;6.32;3.35;;;;;;;;;;4999404;28;20557;-75
2023/06/01 09:04:02;;;;;;;5.97;3.17;;;;;;;;;;5004334;28;20045;-75
2023/06/01 09:06:28;;;;;;;6.20;3.33;;;;;;;;;;5001069;28;20095;-75
2023/06/01 09:08:54;;;;;;;6.03;2.80;;;;;;;;;;4994707;28;20073;-76
2023/06/01 09:11:21;;;;;;;4.63;2.92;;;;;;;;;;5002754;28;20100;-76
2023/06/01 09:13:47;;;;;;;4.65;2.67;;;;;;;;;;4999496;28;20098;-76
2023/06/01 09:16:13;;;;;;;6.38;3.15;;;;;;;;;;4998449;28;20105;-75
2023/06/01 09:18:51;;;;;;;6.00;3.33;;;;;;;;;;5003757;28;20490;-75
2023/06/01 09:21:17;;;;;;;7.75;3.65;;;;;;;;;;4999302;28;20072;-75
2023/06/01 09:23:43;;;;;;;8.98;4.20;;;;;;;;;;4999816;28;20045;-75
2023/06/01 09:26:13;;;;;;;11.25;3.83;;;;;;;;;;5005901;28;20045;-75
2023/06/01 09:29:00;;;;;;;7.70;3.72;;;;;;;;;;5012420;28;20087;-76
2023/06/01 09:31:40;;;;;;;9.38;4.10;;;;;;;;;;5004976;28;20553;-76
2023/06/01 09:34:07;;;;;;;13.00;4.05;;;;;;;;;;5006710;28;20081;-76
2023/06/01 09:36:33;;;;;;;6.28;3.50;;;;;;;;;;5005802;28;20149;-76
2023/06/01 09:39:03;;;;;;;6.90;3.60;;;;;;;;;;5011375;28;20053;-76
2023/06/01 09:41:49;;;;;;;7.38;3.53;;;;;;;;;;5002947;28;20042;-76
2023/06/01 09:44:22;;;;;;;5.40;3.40;;;;;;;;;;5006288;28;20058;-76
2023/06/01 09:46:49;;;;;;;9.98;4.13;;;;;;;;;;5002698;28;20038;-76
2023/06/01 09:49:24;;;;;;;5.95;3.70;;;;;;;;;;5004523;28;20045;-75
2023/06/01 09:51:50;;;;;;;6.80;3.47;;;;;;;;;;5006967;28;20180;-76
2023/06/01 09:54:23;;;;;;;8.23;3.55;;;;;;;;;;5008788;28;20041;-75
2023/06/01 09:56:49;;;;;;;4.93;3.55;;;;;;;;;;5010077;28;20128;-76
2023/06/01 09:59:15;;;;;;;4.90;3.10;;;;;;;;;;5003850;28;20600;-76
2023/06/01 10:01:42;;;;;;;4.78;2.80;;;;;;;;;;5000487;28;20053;-75
2023/06/01 10:04:09;;;;;;;6.55;2.97;;;;;;;;;;5006853;28;20050;-76
2023/06/01 10:06:39;;;;;;;4.18;3.15;;;;;;;;;;5005439;28;20048;-76
2023/06/01 10:09:07;;;;;;;4.65;2.90;;;;;;;;;;5009227;28;20430;-76
2023/06/01 10:11:33;;;;;;;7.50;2.95;;;;;;;;;;5006820;28;20042;-76
2023/06/01 10:14:00;;;;;;;5.07;2.67;;;;;;;;;;5004986;28;20056;-76
2023/06/01 10:16:26;;;;;;;6.30;2.90;;;;;;;;;;5002746;28;20054;-76
2023/06/01 10:18:52;;;;;;;7.00;3.05;;;;;;;;;;5003421;28;20509;-76
2023/06/01 10:21:18;;;;;;;6.43;3.35;;;;;;;;;;5005311;28;20042;-76
2023/06/01 10:23:45;;;;;;;7.28;3.22;;;;;;;;;;5008785;28;20561;-76
2023/06/01 10:26:14;;;;;;;10.43;3.40;;;;;;;;;;4998964;28;20774;-76
2023/06/01 10:28:41;;;;;;;4.80;2.72;;;;;;;;;;5005521;28;20042;-76
2023/06/01 10:31:25;;;;;;;3.65;2.22;;;;;;;;;;5011945;28;20057;-78
2023/06/01 10:33:55;;;;;;;6.05;2.92;;;;;;;;;;5010653;28;20100;-75
2023/06/01 10:36:21;;;;;;;5.32;2.50;;;;;;;;;;4999846;28;20058;-76
2023/06/01 10:38:47;;;;;;;7.43;2.60;;;;;;;;;;5009313;28;20042;-76
2023/06/01 10:41:28;;;;;;;3.72;2.50;;;;;;;;;;5012262;28;20104;-78
2023/06/01 10:43:55;;;;;;;3.45;2.40;;;;;;;;;;5003798;28;20046;-75
2023/06/01 10:46:43;;;;;;;5.47;2.40;;;;;;;;;;5011996;28;20077;-77
2023/06/01 10:49:09;;;;;;;6.57;2.80;;;;;;;;;;5005246;28;20053;-75
2023/06/01 10:51:36;;;;;;;4.20;2.80;;;;;;;;;;4996015;28;20053;-76
2023/06/01 10:54:21;;;;;;;7.25;3.30;;;;;;;;;;5003615;28;20054;-76
2023/06/01 10:56:47;;;;;;;7.32;3.30;;;;;;;;;;5025702;28;20085;-76
2023/06/01 10:59:13;;;;;;;6.13;3.97;;;;;;;;;;5009236;28;20097;-76
2023/06/01 11:01:40;;;;;;;7.53;3.60;;;;;;;;;;4998319;28;20056;-75
2023/06/01 11:04:07;;;;;;;6.72;3.60;;;;;;;;;;5005177;28;20037;-75
2023/06/01 11:06:35;;;;;;;8.70;3.53;;;;;;;;;;5006341;28;20156;-76
2023/06/01 11:09:05;;;;;;;5.45;2.80;;;;;;;;;;5004951;28;20046;-76
2023/06/01 11:11:55;;;;;;;6.28;2.85;;;;;;;;;;5004057;28;20441;-76
2023/06/01 11:14:24;;;;;;;37.55;6.97;;;;;;;;;;5007039;28;20042;-76
2023/06/01 11:16:52;;;;;;;19.42;4.47;;;;;;;;;;5003720;28;20042;-76
2023/06/01 11:19:24;;;;;;;8.25;2.90;;;;;;;;;;5004040;28;20045;-76
2023/06/01 11:22:00;;;;;;;11.48;3.28;;;;;;;;;;4998683;28;20589;-76
2023/06/01 11:24:33;;;;;;;8.13;3.30;;;;;;;;;;5002889;28;20469;-76
2023/06/01 11:27:01;;;;;;;3.42;2.25;;;;;;;;;;5008198;28;20038;-76
2023/06/01 11:29:28;;;;;;;7.75;2.58;;;;;;;;;;5001934;28;20045;-76
2023/06/01 11:31:55;;;;;;;5.60;2.40;;;;;;;;;;5006913;28;20501;-76
2023/06/01 11:34:29;;;;;;;3.88;2.13;;;;;;;;;;5004697;28;20066;-76
2023/06/01 11:36:57;;;;;;;5.43;2.40;;;;;;;;;;5003052;28;20046;-76
2023/06/01 11:39:24;;;;;;;4.05;2.50;;;;;;;;;;4996532;28;20065;-76
2023/06/01 11:42:06;;;;;;;7.80;3.15;;;;;;;;;;5005800;28;20057;-75
2023/06/01 11:44:33;;;;;;;3.53;2.40;;;;;;;;;;5007885;28;20682;-76
2023/06/01 11:47:00;;;;;;;2.28;2.00;;;;;;;;;;5001636;28;20505;-75
2023/06/01 11:49:27;;;;;;;5.93;2.30;;;;;;;;;;5000939;28;20054;-75
2023/06/01 11:51:53;;;;;;;8.35;2.80;;;;;;;;;;5005859;28;20072;-75
2023/06/01 11:54:23;;;;;;;6.57;2.40;;;;;;;;;;5003200;28;20075;-75
2023/06/01 11:56:49;;;;;;;8.25;2.70;;;;;;;;;;5000982;28;20061;-75
2023/06/01 11:59:15;;;;;;;5.93;2.83;;;;;;;;;;5001762;28;20402;-75
2023/06/01 12:01:48;;;;;;;10.63;3.00;;;;;;;;;;5003529;28;20476;-75
2023/06/01 12:04:15;;;;;;;9.55;2.50;;;;;;;;;;5008321;28;20073;-75
2023/06/01 12:06:41;;;;;;;6.38;2.97;;;;;;;;;;5001518;28;20096;-74
2023/06/01 12:09:08;;;;;;;7.43;3.08;;;;;;;;;;5006117;28;20449;-75
2023/06/01 12:11:34;;;;;;;6.38;2.58;;;;;;;;;;5004095;28;20038;-75
2023/06/01 12:14:01;;;;;;;6.20;2.80;;;;;;;;;;5008204;28;20124;-75
2023/06/01 12:16:49;;;;;;;5.25;2.47;;;;;;;;;;5000572;28;20112;-76
2023/06/01 12:19:15;;;;;;;6.72;3.05;;;;;;;;;;5017798;28;20053;-77
2023/06/01 12:21:47;;;;;;;7.40;2.85;;;;;;;;;;5004144;28;20182;-75
2023/06/01 12:24:13;;;;;;;5.10;2.40;;;;;;;;;;5004851;28;20509;-75
2023/06/01 12:26:40;;;;;;;6.85;3.10;;;;;;;;;;5006151;28;20417;-76
2023/06/01 12:29:06;;;;;;;5.05;2.58;;;;;;;;;;5006695;28;20084;-76
2023/06/01 12:31:32;;;;;;;7.40;2.80;;;;;;;;;;4999620;28;20042;-76
2023/06/01 12:33:58;;;;;;;3.90;2.45;;;;;;;;;;5005501;28;20045;-75
2023/06/01 12:36:31;;;;;;;4.45;2.97;;;;;;;;;;5005099;28;20046;-75
2023/06/01 12:38:58;;;;;;;5.67;3.07;;;;;;;;;;5004176;28;20060;-75
2023/06/01 12:41:25;;;;;;;6.15;3.20;;;;;;;;;;5004718;28;20058;-76
2023/06/01 12:43:51;;;;;;;7.43;3.30;;;;;;;;;;5006108;28;20056;-75
2023/06/01 12:46:21;;;;;;;9.98;3.28;;;;;;;;;;5005637;28;20405;-76
2023/06/01 12:48:47;;;;;;;7.72;3.75;;;;;;;;;;5004018;28;20041;-75
2023/06/01 12:51:14;;;;;;;6.85;3.67;;;;;;;;;;5009349;28;20037;-75
2023/06/01 12:53:42;;;;;;;9.82;3.92;;;;;;;;;;5008502;28;20060;-75
2023/06/01 12:56:08;;;;;;;9.50;3.20;;;;;;;;;;5012263;28;20046;-76
2023/06/01 12:58:35;;;;;;;4.43;3.00;;;;;;;;;;5011132;28;20046;-76
2023/06/01 13:01:01;;;;;;;9.00;3.67;;;;;;;;;;5004029;28;20054;-75
2023/06/01 13:03:27;;;;;;;10.65;4.45;;;;;;;;;;5008342;28;20447;-75
2023/06/01 13:05:54;;;;;;;9.25;3.92;;;;;;;;;;5012691;28;20049;-75
2023/06/01 13:08:20;;;;;;;10.25;3.92;;;;;;;;;;5008631;28;20054;-75
2023/06/01 13:10:46;;;;;;;8.38;4.03;;;;;;;;;;5011492;28;20198;-75
2023/06/01 13:13:12;;;;;;;9.05;3.75;;;;;;;;;;5013422;28;20041;-75
2023/06/01 13:15:42;;;;;;;7.40;3.90;;;;;;;;;;5005915;28;20409;-75
2023/06/01 13:18:08;;;;;;;9.30;4.32;;;;;;;;;;5000747;28;20046;-75
2023/06/01 13:20:35;;;;;;;10.90;4.20;;;;;;;;;;4994635;28;20046;-75
2023/06/01 13:23:01;;;;;;;8.75;3.90;;;;;;;;;;5013987;28;20531;-75
2023/06/01 13:25:27;;;;;;;11.35;3.90;;;;;;;;;;5002813;28;20494;-76
2023/06/01 13:27:53;;;;;;;8.20;3.60;;;;;;;;;;5008497;28;20049;-76
2023/06/01 13:30:19;;;;;;;9.60;3.53;;;;;;;;;;4994881;28;20494;-76
2023/06/01 13:32:45;;;;;;;5.22;3.17;;;;;;;;;;4995171;28;20049;-75
2023/06/01 13:35:11;;;;;;;7.45;4.10;;;;;;;;;;4994109;28;20346;-75
2023/06/01 13:37:38;;;;;;;6.82;3.33;;;;;;;;;;5006344;28;20509;-75
2023/06/01 13:40:05;;;;;;;7.43;3.05;;;;;;;;;;5014733;28;20494;-75
2023/06/01 13:42:32;;;;;;;4.25;2.83;;;;;;;;;;5007900;28;20132;-74
2023/06/01 13:44:58;;;;;;;10.45;3.65;;;;;;;;;;5011711;28;20088;-75
2023/06/01 13:47:24;;;;;;;7.60;3.80;;;;;;;;;;5014135;28;20100;-76
2023/06/01 13:49:51;;;;;;;7.38;3.30;;;;;;;;;;5010886;28;20512;-76
2023/06/01 13:52:17;;;;;;;6.38;3.03;;;;;;;;;;5003678;28;20048;-75
2023/06/01 13:54:43;;;;;;;6.75;2.88;;;;;;;;;;5013608;28;20054;-75
2023/06/01 13:57:10;;;;;;;6.72;3.15;;;;;;;;;;4999384;28;20116;-75
2023/06/01 13:59:36;;;;;;;7.57;3.05;;;;;;;;;;5012195;28;20494;-75
2023/06/01 14:02:02;;;;;;;6.88;2.92;;;;;;;;;;4992983;28;20058;-76
2023/06/01 14:04:29;;;;;;;7.38;3.20;;;;;;;;;;5007690;28;20057;-76
2023/06/01 14:06:56;;;;;;;5.78;3.13;;;;;;;;;;4993552;28;20058;-75
2023/06/01 14:09:22;;;;;;;6.72;2.67;;;;;;;;;;5006987;28;20050;-75
2023/06/01 14:11:48;;;;;;;4.05;2.40;;;;;;;;;;5010665;28;20129;-75
2023/06/01 14:14:14;;;;;;;7.05;2.50;;;;;;;;;;4994262;28;20088;-75
2023/06/01 14:16:40;;;;;;;6.80;3.00;;;;;;;;;;4993614;28;20066;-75
2023/06/01 14:19:06;;;;;;;6.00;2.78;;;;;;;;;;4999530;28;20045;-76
2023/06/01 14:21:34;;;;;;;7.35;3.10;;;;;;;;;;4998426;28;20073;-75
2023/06/01 14:24:00;;;;;;;6.72;2.60;;;;;;;;;;4994247;28;20050;-76
2023/06/01 14:26:27;;;;;;;4.07;2.88;;;;;;;;;;5006739;28;20046;-75
2023/06/01 14:28:53;;;;;;;4.28;2.85;;;;;;;;;;5010453;28;20129;-75
2023/06/01 14:31:20;;;;;;;5.70;3.00;;;;;;;;;;4995351;28;20038;-76
2023/06/01 14:33:46;;;;;;;8.55;2.97;;;;;;;;;;5004056;28;20053;-76
2023/06/01 14:36:12;;;;;;;5.18;2.63;;;;;;;;;;5005189;28;20046;-76
2023/06/01 14:38:38;;;;;;;5.70;2.90;;;;;;;;;;5011815;28;20053;-75
2023/06/01 14:41:04;;;;;;;5.35;3.30;;;;;;;;;;5001016;28;20042;-75
2023/06/01 14:43:31;;;;;;;7.13;3.92;;;;;;;;;;5010806;28;20061;-75